Time;durP1;ratioP1;P1;durP2;ratioP2;P2;SDS_P1;SDS_P2;PMS_P1;PMS_P2;Temp;Humidity;BMP_temperature;BMP_pressure;BME280_temperature;BME280_humidity;BME280_pressure;Samples;Min_cycle;Max_cycle;Signal;HPM_P1;HPM_P2
2022/12/03 00:01:12;;;;;;;9.48;2.33;;;;;;;5.64;80.47;101193.59;5087809;28;20071;-51
2022/12/03 00:03:39;;;;;;;13.10;3.22;;;;;;;5.65;79.82;101195.34;5081460;28;20047;-50
2022/12/03 00:06:06;;;;;;;6.13;2.38;;;;;;;5.65;80.12;101195.34;5083016;28;20055;-51
2022/12/03 00:08:33;;;;;;;11.45;2.30;;;;;;;5.65;80.94;101185.06;5080637;28;20036;-51
2022/12/03 00:10:59;;;;;;;7.72;2.70;;;;;;;5.64;81.44;101188.44;5081513;28;20089;-51
2022/12/03 00:13:26;;;;;;;7.35;2.45;;;;;;;5.66;80.69;101191.97;5081882;28;20068;-53
2022/12/03 00:15:52;;;;;;;8.30;2.85;;;;;;;5.66;81.42;101191.97;5083649;28;20131;-53
2022/12/03 00:18:19;;;;;;;9.40;3.13;;;;;;;5.65;81.17;101184.19;5081312;28;20040;-52
2022/12/03 00:20:46;;;;;;;9.65;2.78;;;;;;;5.66;80.68;101181.69;5083396;28;20163;-53
2022/12/03 00:23:12;;;;;;;9.85;2.97;;;;;;;5.69;80.72;101183.47;5078920;28;20052;-52
2022/12/03 00:25:39;;;;;;;10.70;3.17;;;;;;;5.66;80.59;101176.53;5082097;28;20132;-51
2022/12/03 00:28:06;;;;;;;10.07;2.58;;;;;;;5.69;81.32;101174.88;5074881;28;20441;-55
2022/12/03 00:30:33;;;;;;;14.27;3.47;;;;;;;5.69;80.34;101175.78;5076986;28;20121;-53
2022/12/03 00:32:59;;;;;;;10.30;2.67;;;;;;;5.71;79.60;101180.97;5071833;28;20075;-51
2022/12/03 00:35:26;;;;;;;13.15;3.65;;;;;;;5.68;80.15;101180.84;5082655;28;20593;-51
2022/12/03 00:37:53;;;;;;;11.48;3.38;;;;;;;5.70;79.81;101181.75;5079943;28;20087;-51
2022/12/03 00:40:20;;;;;;;8.32;2.92;;;;;;;5.70;80.64;101176.63;5078112;28;20410;-51
2022/12/03 00:42:46;;;;;;;11.10;3.35;;;;;;;5.71;79.75;101173.25;5075383;28;20134;-48
2022/12/03 00:45:13;;;;;;;9.82;3.33;;;;;;;5.71;80.59;101173.25;5078638;28;20582;-52
2022/12/03 00:47:39;;;;;;;9.85;3.67;;;;;;;5.72;79.90;101177.56;5083337;28;20097;-53
2022/12/03 00:50:07;;;;;;;11.05;3.33;;;;;;;5.72;80.07;101180.13;5075510;28;20558;-51
2022/12/03 00:52:33;;;;;;;12.50;3.00;;;;;;;5.72;80.46;101180.13;5074567;28;20097;-52
2022/12/03 00:55:00;;;;;;;8.38;2.60;;;;;;;5.71;81.07;101173.25;5070770;28;20104;-51
2022/12/03 00:57:27;;;;;;;11.98;3.47;;;;;;;5.71;80.80;101171.53;5077100;28;20071;-50
2022/12/03 00:59:53;;;;;;;9.75;3.45;;;;;;;5.72;80.04;101169.84;5070828;28;20721;-54
2022/12/03 01:02:20;;;;;;;15.23;3.75;;;;;;;5.73;80.41;101166.47;5073155;28;20139;-51
2022/12/03 01:04:47;;;;;;;19.38;4.07;;;;;;;5.73;80.31;101166.47;5070917;28;20451;-52
2022/12/03 01:07:13;;;;;;;12.77;4.25;;;;;;;5.73;79.88;101156.19;5077668;28;20410;-51
2022/12/03 01:09:40;;;;;;;14.20;3.75;;;;;;;5.74;79.31;101168.22;5076952;28;20492;-50
2022/12/03 01:12:06;;;;;;;16.08;3.60;;;;;;;5.72;79.60;101159.56;5077514;28;20673;-51
2022/12/03 01:14:33;;;;;;;18.38;3.10;;;;;;;5.73;79.55;101156.19;5076472;28;20094;-53
2022/12/03 01:17:00;;;;;;;10.23;3.22;;;;;;;5.73;79.54;101163.88;5077087;28;20131;-51
2022/12/03 01:19:27;;;;;;;11.35;3.55;;;;;;;5.73;79.77;101163.88;5076288;28;20075;-50
2022/12/03 01:21:54;;;;;;;11.52;3.42;;;;;;;5.72;80.64;101160.47;5074294;28;20121;-53
2022/12/03 01:24:22;;;;;;;11.90;3.70;;;;;;;5.74;79.92;101157.94;5078476;28;20052;-50
2022/12/03 01:26:51;;;;;;;15.38;2.90;;;;;;;5.74;79.38;101158.81;5079514;28;20442;-52
2022/12/03 01:29:19;;;;;;;9.15;3.08;;;;;;;5.74;80.39;101157.94;5078315;28;20050;-52
2022/12/03 01:34:35;;;;;;;12.35;4.18;;;;;;;5.71;80.21;101157.84;5056837;28;20041;-52
2022/12/03 01:37:03;;;;;;;11.40;3.38;;;;;;;5.71;80.10;101162.97;5069526;28;20447;-49
2022/12/03 01:39:32;;;;;;;11.63;3.40;;;;;;;5.70;80.13;101166.34;5082070;28;20079;-51
2022/12/03 01:42:01;;;;;;;10.85;2.90;;;;;;;5.70;80.55;101166.34;5078497;28;20048;-53
2022/12/03 01:44:33;;;;;;;14.88;3.60;;;;;;;5.69;79.90;101159.47;5071728;28;20079;-51
2022/12/03 01:47:05;;;;;;;11.70;3.80;;;;;;;5.70;79.84;101163.78;5082015;28;20072;-53
2022/12/03 01:49:41;;;;;;;15.43;4.18;;;;;;;5.66;79.49;101171.41;5080079;28;20072;-50
2022/12/03 01:52:12;;;;;;;10.98;3.08;;;;;;;5.65;80.31;101164.50;5076680;28;20072;-53
2022/12/03 01:54:46;;;;;;;11.23;3.65;;;;;;;5.68;79.24;101160.28;5062308;28;20504;-52
2022/12/03 01:59:58;;;;;;;14.63;5.50;;;;;;;5.65;79.72;101159.34;5044238;27;20900;-52
2022/12/03 02:02:29;;;;;;;8.07;4.10;;;;;;;5.66;79.01;101158.56;5037047;28;20150;-51
2022/12/03 02:04:56;;;;;;;12.52;5.45;;;;;;;5.64;79.73;101152.47;5042768;28;20614;-53
2022/12/03 02:10:01;;;;;;;8.88;3.22;;;;;;;5.65;79.25;101154.19;5026116;28;20449;-51
2022/12/03 02:12:40;;;;;;;14.75;4.07;;;;;;;5.65;78.96;101149.06;4979536;28;20089;-53
2022/12/03 02:15:08;;;;;;;15.93;3.92;;;;;;;5.65;79.18;101154.19;4979071;28;20469;-52
2022/12/03 02:17:35;;;;;;;9.82;3.58;;;;;;;5.66;79.99;101140.56;4981395;28;20461;-51
2022/12/03 02:20:04;;;;;;;12.82;3.55;;;;;;;5.66;79.53;101143.13;4997696;28;20138;-51
2022/12/03 02:25:40;;;;;;;15.02;5.07;;;;;;;5.66;79.56;101143.13;5058207;27;20400;-51
2022/12/03 02:28:08;;;;;;;15.35;5.70;;;;;;;5.63;79.57;101140.44;5036674;28;20095;-51
2022/12/03 02:30:35;;;;;;;12.40;6.20;;;;;;;5.64;79.91;101139.63;5032729;28;20135;-51
2022/12/03 02:33:02;;;;;;;17.48;5.88;;;;;;;5.63;78.83;101140.44;5026332;28;20045;-54
2022/12/03 02:35:32;;;;;;;17.67;6.22;;;;;;;5.62;78.71;101141.28;5032677;28;20127;-52
2022/12/03 02:38:05;;;;;;;13.65;5.18;;;;;;;5.62;79.97;101142.97;5031004;28;20053;-51
2022/12/03 02:40:33;;;;;;;14.48;5.80;;;;;;;5.62;78.81;101141.28;5027382;28;20116;-52
2022/12/03 02:43:02;;;;;;;18.35;6.43;;;;;;;5.61;79.97;101136.94;5012715;28;20077;-51
2022/12/03 02:45:33;;;;;;;14.27;5.20;;;;;;;5.62;79.42;101148.09;5017012;28;20104;-51
2022/12/03 02:48:04;;;;;;;18.00;3.47;;;;;;;5.59;79.04;101142.84;5014417;28;20586;-52
2022/12/03 02:50:38;;;;;;;14.35;5.53;;;;;;;5.54;78.80;101145.25;5009759;28;20088;-52
2022/12/03 02:53:10;;;;;;;13.20;5.07;;;;;;;5.50;78.56;101143.38;5013485;28;20084;-53
2022/12/03 02:55:37;;;;;;;9.77;3.70;;;;;;;5.42;79.04;101139.66;5016416;28;20489;-51
2022/12/03 02:58:05;;;;;;;12.70;4.90;;;;;;;5.37;79.31;101142.94;5011797;28;20133;-53
2022/12/03 03:00:34;;;;;;;17.88;4.68;;;;;;;5.32;79.73;101141.91;5010044;28;20080;-53
2022/12/03 03:03:03;;;;;;;13.35;5.00;;;;;;;5.28;79.77;101138.34;5015576;28;20172;-51
2022/12/03 03:05:30;;;;;;;13.27;4.30;;;;;;;5.21;79.46;101131.25;5013435;28;20049;-54
2022/12/03 03:07:58;;;;;;;16.15;5.10;;;;;;;5.16;79.30;101137.03;5010411;28;20781;-55
2022/12/03 03:10:26;;;;;;;12.07;4.40;;;;;;;5.09;78.69;101131.66;5010462;28;20509;-53
2022/12/03 03:12:54;;;;;;;13.07;4.80;;;;;;;5.04;79.09;101128.06;5006030;28;20057;-52
2022/12/03 03:15:22;;;;;;;11.32;4.38;;;;;;;4.99;78.46;101124.41;5006980;28;20124;-55
2022/12/03 03:17:49;;;;;;;12.30;5.18;;;;;;;4.95;78.86;101133.72;5010717;28;20132;-52
2022/12/03 03:20:17;;;;;;;12.52;4.55;;;;;;;4.93;78.95;101135.34;5012179;28;20142;-53
2022/12/03 03:22:44;;;;;;;13.23;4.80;;;;;;;4.92;79.34;101127.56;5015219;28;20095;-51
2022/12/03 03:25:16;;;;;;;11.52;4.47;;;;;;;4.93;78.60;101129.34;5009169;28;20176;-51
2022/12/03 03:27:44;;;;;;;11.43;4.07;;;;;;;4.93;79.31;101129.34;5009586;28;20108;-48
2022/12/03 03:30:12;;;;;;;9.43;4.95;;;;;;;4.94;78.81;101125.94;5008390;28;20188;-54
2022/12/03 03:32:39;;;;;;;9.93;4.13;;;;;;;4.97;78.90;101133.78;5005375;28;20046;-50
2022/12/03 03:35:08;;;;;;;9.27;4.45;;;;;;;4.99;78.95;101124.41;5007200;28;20073;-53
2022/12/03 03:37:34;;;;;;;12.15;4.80;;;;;;;5.01;79.33;101127.94;4995161;28;20049;-50
2022/12/03 03:40:01;;;;;;;7.72;4.15;;;;;;;5.03;78.57;101126.28;4993840;28;20479;-52
2022/12/03 03:42:28;;;;;;;11.52;4.78;;;;;;;5.05;78.94;101132.38;4989126;28;20052;-51
2022/12/03 03:44:54;;;;;;;11.27;4.55;;;;;;;5.07;78.91;101138.41;4992028;28;20125;-52
2022/12/03 03:47:22;;;;;;;14.48;4.22;;;;;;;5.09;79.01;101131.66;5002203;28;20046;-50
2022/12/03 03:49:49;;;;;;;7.90;3.78;;;;;;;5.08;79.67;101135.06;4998975;28;20050;-49
2022/12/03 03:52:18;;;;;;;20.30;4.18;;;;;;;5.11;78.61;101134.28;4990216;28;20078;-50
2022/12/03 03:54:45;;;;;;;9.75;4.20;;;;;;;5.11;79.59;101132.59;5013778;28;20093;-52
2022/12/03 03:57:11;;;;;;;14.48;4.70;;;;;;;5.12;79.59;101126.66;4997163;28;20120;-50
2022/12/03 03:59:38;;;;;;;7.63;3.58;;;;;;;5.13;78.95;101125.81;5001973;28;20501;-52
2022/12/03 04:02:05;;;;;;;8.38;3.67;;;;;;;5.16;78.89;101126.75;5004452;28;20088;-51
2022/12/03 04:04:35;;;;;;;9.15;4.05;;;;;;;5.18;79.68;101131.13;5004931;28;20489;-52
2022/12/03 04:07:02;;;;;;;;;;;;;;;5.10;80.11;101135.97;5003485;28;20057;-52
2022/12/03 04:09:28;;;;;;;8.93;3.45;;;;;;;5.17;79.80;101133.66;5005238;28;19956;-50
2022/12/03 04:14:41;;;;;;;8.88;3.72;;;;;;;5.21;80.01;101140.63;5001070;28;20052;-52
2022/12/03 04:17:08;;;;;;;11.20;3.90;;;;;;;5.23;80.22;101128.72;5001200;28;20073;-50
2022/12/03 04:19:34;;;;;;;10.43;3.70;;;;;;;5.21;79.22;101131.25;5003267;28;20070;-50
2022/12/03 04:24:47;;;;;;;6.90;3.55;;;;;;;5.27;78.96;101135.75;5003673;28;20049;-50
2022/12/03 04:30:01;;;;;;;10.95;5.95;;;;;;;5.27;78.90;101130.59;4994882;28;20050;-50
2022/12/03 04:38:01;;;;;;;9.50;4.22;;;;;;;5.28;80.10;101132.34;5011081;28;20112;-51
2022/12/03 04:43:14;;;;;;;11.52;3.65;;;;;;;5.27;80.00;101125.47;5000036;28;20066;-51
2022/12/03 04:45:40;;;;;;;9.38;4.97;;;;;;;5.26;78.89;101123.69;4996894;28;20383;-55
2022/12/03 04:48:07;;;;;;;10.50;4.05;;;;;;;5.28;78.76;101127.22;4996624;28;20089;-52
2022/12/03 04:50:34;;;;;;;11.00;4.22;;;;;;;5.27;78.87;101125.47;5001484;28;20509;-52
2022/12/03 04:53:00;;;;;;;12.52;3.97;;;;;;;5.27;79.46;101122.91;5004453;28;20130;-53
2022/12/03 04:55:27;;;;;;;7.05;3.95;;;;;;;5.28;78.96;101122.91;5007978;28;20062;-52
2022/12/03 04:57:53;;;;;;;12.20;4.65;;;;;;;5.27;79.68;101118.63;5001217;28;20199;-54
2022/12/03 05:00:20;;;;;;;9.10;3.72;;;;;;;5.26;79.88;101113.41;5013720;28;20185;-53
2022/12/03 05:02:47;;;;;;;7.50;4.18;;;;;;;5.25;78.86;101115.13;5016584;28;20041;-50
2022/12/03 05:05:13;;;;;;;12.05;3.22;;;;;;;5.26;79.25;101115.97;4997473;28;20442;-50
2022/12/03 05:07:40;;;;;;;6.90;3.88;;;;;;;5.25;79.54;101104.84;4997212;28;20070;-51
2022/12/03 05:10:07;;;;;;;13.73;3.95;;;;;;;5.25;79.75;101106.53;4999312;28;20725;-51
2022/12/03 05:12:34;;;;;;;11.25;4.35;;;;;;;5.24;79.12;101107.38;4997157;28;20045;-53
2022/12/03 05:15:02;;;;;;;7.90;3.95;;;;;;;5.23;78.99;101108.16;4997472;28;20045;-51
2022/12/03 05:17:28;;;;;;;8.68;4.47;;;;;;;5.23;78.77;101108.16;4997396;28;20065;-50
2022/12/03 05:22:42;;;;;;;10.90;4.60;;;;;;;5.22;78.25;101098.72;5004230;28;20081;-51
2022/12/03 05:25:09;;;;;;;8.52;4.45;;;;;;;5.21;78.84;101102.13;4992733;28;20108;-52
2022/12/03 05:27:35;;;;;;;11.00;3.50;;;;;;;5.18;78.19;101095.19;4999122;28;20073;-52
2022/12/03 05:30:02;;;;;;;9.38;3.88;;;;;;;5.19;79.11;101101.16;4999390;28;20117;-52
2022/12/03 05:32:30;;;;;;;12.43;2.33;;;;;;;5.17;78.85;101097.69;4995169;28;20516;-51
2022/12/03 05:34:56;;;;;;;8.73;3.70;;;;;;;5.13;78.89;101097.56;4995268;28;20053;-52
2022/12/03 05:37:23;;;;;;;10.32;4.28;;;;;;;5.12;78.91;101090.69;4998403;28;20092;-50
2022/12/03 05:39:49;;;;;;;11.82;3.80;;;;;;;5.10;78.23;101087.19;4996188;28;20070;-49
2022/12/03 05:45:02;;;;;;;10.95;3.88;;;;;;;5.04;79.06;101081.84;5000841;28;20067;-53
2022/12/03 05:47:29;;;;;;;9.30;3.85;;;;;;;5.01;78.61;101076.59;4999802;28;20058;-52
2022/12/03 05:49:56;;;;;;;6.75;3.33;;;;;;;5.00;77.95;101069.69;4993137;28;20096;-53
2022/12/03 05:52:22;;;;;;;8.65;3.80;;;;;;;4.99;78.88;101067.94;4992250;28;20069;-54
2022/12/03 05:54:49;;;;;;;6.88;4.00;;;;;;;4.99;78.94;101070.50;4993483;28;20568;-50
2022/12/03 05:57:15;;;;;;;13.48;4.93;;;;;;;5.00;78.87;101067.13;5000911;28;20150;-52
2022/12/03 05:59:42;;;;;;;9.85;3.78;;;;;;;4.99;78.63;101058.53;4995931;28;20516;-54
2022/12/03 06:02:08;;;;;;;11.15;3.60;;;;;;;4.98;78.09;101055.91;4997836;28;20053;-51
2022/12/03 06:04:35;;;;;;;12.60;3.40;;;;;;;4.98;78.99;101046.53;5000731;28;20046;-51
2022/12/03 06:07:02;;;;;;;9.38;3.38;;;;;;;4.98;78.56;101048.22;4996896;28;20073;-50
2022/12/03 06:09:28;;;;;;;8.60;3.22;;;;;;;4.98;78.06;101043.97;5002522;28;20133;-52
2022/12/03 06:11:55;;;;;;;8.43;4.07;;;;;;;4.97;78.51;101043.91;5001690;28;20084;-53
2022/12/03 06:14:21;;;;;;;7.47;3.22;;;;;;;4.95;78.00;101040.41;5014036;28;20103;-50
2022/12/03 06:16:48;;;;;;;9.10;3.63;;;;;;;4.94;78.62;101038.66;5023434;28;20083;-53
2022/12/03 06:19:14;;;;;;;9.02;3.55;;;;;;;4.89;78.20;101036.78;5020093;28;20045;-51
2022/12/03 06:21:41;;;;;;;10.38;4.05;;;;;;;4.85;78.52;101036.63;5022026;28;20061;-52
2022/12/03 06:24:08;;;;;;;8.90;3.40;;;;;;;4.82;79.30;101039.06;5015507;28;20085;-50
2022/12/03 06:26:34;;;;;;;12.13;4.00;;;;;;;4.77;77.96;101036.34;5023430;28;20081;-49
2022/12/03 06:29:01;;;;;;;7.53;4.15;;;;;;;4.72;78.39;101036.16;5012319;28;20140;-52
2022/12/03 06:31:28;;;;;;;8.20;3.17;;;;;;;4.66;78.12;101033.38;5014934;28;20057;-51
2022/12/03 06:33:54;;;;;;;6.47;3.45;;;;;;;4.62;78.29;101024.69;5015108;28;20061;-48
2022/12/03 06:36:21;;;;;;;7.68;4.07;;;;;;;4.56;78.34;101021.88;5019969;28;20049;-51
2022/12/03 06:38:49;;;;;;;10.68;3.33;;;;;;;4.52;78.75;101020.03;5019657;28;20061;-52
2022/12/03 06:41:15;;;;;;;8.60;3.55;;;;;;;4.47;78.63;101021.53;5013409;28;20565;-52
2022/12/03 06:43:42;;;;;;;11.57;3.45;;;;;;;4.42;78.31;101012.81;5013431;28;20509;-51
2022/12/03 06:46:08;;;;;;;11.40;3.40;;;;;;;4.39;78.49;101017.81;5010917;28;20167;-52
2022/12/03 06:48:35;;;;;;;10.20;3.55;;;;;;;4.34;78.14;101015.94;5016931;28;20088;-50
2022/12/03 06:51:01;;;;;;;9.32;4.53;;;;;;;4.32;78.55;101022.69;5010204;28;20041;-51
2022/12/03 06:53:28;;;;;;;10.05;3.80;;;;;;;4.27;78.47;101019.09;5018149;28;20078;-52
2022/12/03 06:55:55;;;;;;;7.45;3.80;;;;;;;4.24;78.42;101018.97;5016749;28;20069;-52
2022/12/03 06:58:22;;;;;;;8.30;3.42;;;;;;;4.24;78.24;101016.41;5016397;28;20068;-51
2022/12/03 07:00:48;;;;;;;8.15;2.45;;;;;;;4.24;78.65;101019.84;5011899;28;20493;-50
2022/12/03 07:03:15;;;;;;;6.18;1.63;;;;;;;4.23;78.65;101018.06;5020433;28;20512;-53
2022/12/03 07:05:41;;;;;;;10.52;4.32;;;;;;;4.22;78.37;101018.06;5008693;28;20044;-50
2022/12/03 07:08:08;;;;;;;12.05;4.15;;;;;;;4.21;78.43;101013.72;5010007;28;20528;-49
2022/12/03 07:10:35;;;;;;;8.63;3.72;;;;;;;4.21;78.85;101013.72;5015211;28;20050;-54
2022/12/03 07:13:01;;;;;;;10.27;4.22;;;;;;;4.20;78.84;101011.97;5017270;28;20083;-54
2022/12/03 07:15:28;;;;;;;7.93;3.50;;;;;;;4.20;78.92;101011.97;5023203;28;20461;-53
2022/12/03 07:17:54;;;;;;;9.40;3.97;;;;;;;4.21;79.26;101013.72;5011931;28;20054;-50
2022/12/03 07:20:21;;;;;;;7.75;4.38;;;;;;;4.22;79.17;101018.06;5021111;28;20552;-51
2022/12/03 07:22:48;;;;;;;4.95;3.70;;;;;;;4.24;79.25;101016.41;5019959;28;20610;-50
2022/12/03 07:25:14;;;;;;;9.90;3.67;;;;;;;4.26;79.53;101006.22;5015190;28;20144;-54
2022/12/03 07:27:48;;;;;;;11.02;3.22;;;;;;;4.31;79.29;101007.25;5018740;28;22119;-50
2022/12/03 07:30:15;;;;;;;9.20;2.92;;;;;;;4.33;79.64;101001.34;5018047;28;20115;-50
2022/12/03 07:32:42;;;;;;;10.13;3.33;;;;;;;4.35;79.66;101002.31;5009962;28;20119;-54
2022/12/03 07:35:09;;;;;;;9.13;3.90;;;;;;;4.37;79.96;101003.25;5021048;28;20509;-50
2022/12/03 07:37:35;;;;;;;4.95;3.08;;;;;;;4.37;79.65;100998.13;5016427;28;20065;-54
2022/12/03 07:40:05;;;;;;;6.50;3.05;;;;;;;4.37;79.89;100993.00;5019060;28;20061;-51
2022/12/03 07:42:31;;;;;;;6.82;3.47;;;;;;;4.40;79.79;100993.91;4998953;28;20053;-51
2022/12/03 07:44:58;;;;;;;12.05;4.03;;;;;;;4.39;79.80;100987.03;5023653;28;20140;-54
2022/12/03 07:47:25;;;;;;;10.68;4.00;;;;;;;4.40;79.73;100988.78;5022241;28;20057;-52
2022/12/03 07:49:51;;;;;;;4.18;2.85;;;;;;;4.40;79.89;100994.78;5020477;28;20045;-53
2022/12/03 07:52:18;;;;;;;8.02;3.50;;;;;;;4.40;79.73;100999.03;5016724;28;20139;-51
2022/12/03 07:54:44;;;;;;;9.73;4.65;;;;;;;4.38;79.90;100991.28;5021734;28;20048;-50
2022/12/03 07:57:12;;;;;;;5.40;3.08;;;;;;;4.35;79.86;100981.78;5022050;28;20060;-47
2022/12/03 07:59:39;;;;;;;5.07;3.17;;;;;;;4.36;79.99;100983.53;5011498;28;20058;-51
2022/12/03 08:02:05;;;;;;;9.43;3.55;;;;;;;4.37;79.55;100990.44;5006362;28;20497;-51
2022/12/03 08:04:32;;;;;;;6.13;2.80;;;;;;;4.33;79.74;100978.28;5012019;28;20056;-50
2022/12/03 08:06:58;;;;;;;5.35;2.78;;;;;;;4.32;79.66;100976.53;5015261;28;20092;-53
2022/12/03 08:09:25;;;;;;;7.95;3.08;;;;;;;4.31;79.71;100977.34;5011282;28;20073;-53
2022/12/03 08:11:52;;;;;;;8.20;2.72;;;;;;;4.31;79.48;100979.91;5017754;28;20049;-51
2022/12/03 08:14:19;;;;;;;5.50;3.20;;;;;;;4.29;79.85;100980.69;5010573;28;21074;-50
2022/12/03 08:16:47;;;;;;;7.15;3.25;;;;;;;4.30;80.29;100987.56;5015414;28;20052;-49
2022/12/03 08:19:16;;;;;;;6.30;3.15;;;;;;;4.29;79.96;100981.53;5014530;28;20049;-53
2022/12/03 08:21:42;;;;;;;7.97;3.38;;;;;;;4.31;80.12;100974.78;5017422;28;20072;-54
2022/12/03 08:24:13;;;;;;;4.20;2.67;;;;;;;4.27;80.14;100972.94;5014586;28;20119;-50
2022/12/03 08:26:43;;;;;;;7.40;2.53;;;;;;;4.29;79.68;100976.41;5016361;28;20131;-51
2022/12/03 08:29:12;;;;;;;6.30;2.35;;;;;;;4.26;80.06;100975.44;5015286;28;20045;-49
2022/12/03 08:31:39;;;;;;;7.10;3.15;;;;;;;4.27;79.96;100970.38;5014120;28;20073;-49
2022/12/03 08:34:17;;;;;;;4.85;3.15;;;;;;;4.26;80.37;100971.19;5011444;28;20136;-50
2022/12/03 08:36:45;;;;;;;4.75;2.33;;;;;;;4.34;80.42;100964.66;5013555;28;20103;-50
2022/12/03 08:44:54;;;;;;;4.78;2.08;;;;;;;4.49;79.49;100968.59;5109456;27;20402;-50
2022/12/03 08:47:23;;;;;;;5.15;1.30;;;;;;;4.53;80.04;100965.34;5047637;28;20421;-53
2022/12/03 08:49:56;;;;;;;5.00;1.75;;;;;;;4.56;79.92;100968.00;5034484;28;20049;-52
2022/12/03 08:52:30;;;;;;;5.35;1.15;;;;;;;4.57;79.47;100967.19;5038589;28;20479;-49
2022/12/03 08:54:58;;;;;;;7.85;1.50;;;;;;;4.57;80.05;100956.94;5044779;28;20393;-53
2022/12/03 08:57:29;;;;;;;3.97;1.45;;;;;;;4.59;79.75;100951.88;5047492;28;20064;-51
2022/12/03 09:00:20;;;;;;;2.72;0.80;;;;;;;4.59;79.19;100959.56;5039120;28;20084;-53
2022/12/03 09:02:50;;;;;;;5.03;0.82;;;;;;;4.59;79.61;100954.44;5078834;28;20143;-49
2022/12/03 09:05:21;;;;;;;4.00;1.00;;;;;;;4.61;79.64;100955.34;5052933;28;20168;-52
2022/12/03 09:07:48;;;;;;;6.85;0.80;;;;;;;4.62;79.13;100955.41;5052249;28;20144;-50
2022/12/03 09:10:15;;;;;;;4.60;0.70;;;;;;;4.63;79.26;100952.00;5083943;28;20107;-52
2022/12/03 09:12:41;;;;;;;2.45;0.80;;;;;;;4.65;79.33;100946.06;5046834;28;20139;-49
2022/12/03 09:15:08;;;;;;;4.85;0.90;;;;;;;4.68;79.66;100943.59;5056418;28;20161;-51
2022/12/03 09:17:35;;;;;;;2.40;1.15;;;;;;;4.72;79.64;100940.31;5057928;28;20103;-53
2022/12/03 09:20:02;;;;;;;6.03;1.05;;;;;;;4.80;79.34;100941.47;5057945;28;20075;-52
2022/12/03 09:22:29;;;;;;;3.83;1.25;;;;;;;4.86;79.25;100928.84;5051371;28;20182;-53
2022/12/03 09:24:55;;;;;;;2.58;0.95;;;;;;;4.98;79.96;100937.81;5057192;28;20072;-51
2022/12/03 09:27:22;;;;;;;3.15;0.63;;;;;;;5.06;79.81;100938.94;5052116;28;20053;-49
2022/12/03 09:29:49;;;;;;;4.60;1.08;;;;;;;5.13;80.14;100938.34;5054359;28;20478;-52
2022/12/03 09:32:16;;;;;;;2.70;1.20;;;;;;;5.21;80.09;100930.03;5070985;28;20107;-52
2022/12/03 09:34:45;;;;;;;4.43;1.10;;;;;;;5.30;79.52;100921.75;5068315;28;20072;-50
2022/12/03 09:37:11;;;;;;;2.08;1.00;;;;;;;6.24;80.22;100922.94;5075498;28;20102;-51
2022/12/03 09:39:38;;;;;;;4.15;0.75;;;;;;;7.37;80.35;100924.22;5072865;28;20535;-53
2022/12/03 09:42:05;;;;;;;4.80;0.98;;;;;;;8.16;77.57;100923.44;5078247;28;20048;-53
2022/12/03 09:44:33;;;;;;;2.53;0.65;;;;;;;8.89;76.12;100923.16;5080509;28;20127;-50
2022/12/03 09:47:00;;;;;;;5.20;1.20;;;;;;;9.63;74.65;100928.69;5065613;28;20075;-51
2022/12/03 09:49:29;;;;;;;2.22;0.73;;;;;;;10.43;73.54;100917.69;5066725;28;20044;-49
2022/12/03 09:51:57;;;;;;;5.72;1.65;;;;;;;11.19;72.06;100915.03;5077222;28;20052;-56
2022/12/03 09:54:26;;;;;;;1.65;0.73;;;;;;;11.97;71.46;100915.56;5072514;28;20885;-54
2022/12/03 09:56:54;;;;;;;2.05;0.90;;;;;;;12.63;69.42;100921.91;5059043;28;20256;-51
2022/12/03 09:59:24;;;;;;;1.75;1.13;;;;;;;13.11;68.34;100916.81;5062486;28;20057;-51
2022/12/03 10:01:52;;;;;;;1.55;0.85;;;;;;;13.11;66.55;100911.59;5051188;28;20041;-53
2022/12/03 10:04:19;;;;;;;2.10;1.10;;;;;;;13.15;67.02;100909.88;5042591;28;20140;-51
2022/12/03 10:06:46;;;;;;;3.42;1.88;;;;;;;13.47;65.83;100905.50;5050239;28;20056;-54
2022/12/03 10:09:19;;;;;;;1.63;0.70;;;;;;;13.48;64.66;100905.56;5063381;28;20080;-54
2022/12/03 10:11:46;;;;;;;4.20;0.50;;;;;;;13.60;64.59;100896.00;5056410;28;20491;-52
2022/12/03 10:14:16;;;;;;;1.73;0.93;;;;;;;13.79;63.85;100899.44;5064835;28;20504;-53
2022/12/03 10:16:42;;;;;;;2.60;1.23;;;;;;;14.28;64.13;100889.69;5062835;28;20181;-59
2022/12/03 10:19:20;;;;;;;4.07;1.48;;;;;;;14.60;61.74;100886.09;5063619;28;20048;-52
2022/12/03 10:21:46;;;;;;;3.58;1.10;;;;;;;15.02;61.67;100882.31;5064409;28;20127;-56
2022/12/03 10:27:24;;;;;;;4.10;0.73;;;;;;;15.58;58.27;100876.63;5110145;27;20412;-53
2022/12/03 10:29:56;;;;;;;3.30;1.52;;;;;;;15.53;57.02;100878.41;5022379;28;20052;-52
2022/12/03 10:32:26;;;;;;;2.95;0.90;;;;;;;14.97;56.96;100866.72;5003897;28;20050;-54
2022/12/03 10:35:08;;;;;;;3.15;0.98;;;;;;;14.23;56.12;100865.41;4998300;28;20085;-53
2022/12/03 10:37:35;;;;;;;2.00;0.80;;;;;;;13.57;57.69;100869.97;4981908;28;20042;-54
2022/12/03 10:40:07;;;;;;;3.53;0.75;;;;;;;13.00;57.93;100857.88;4993990;28;20078;-52
2022/12/03 10:42:37;;;;;;;3.95;0.82;;;;;;;12.56;58.91;100858.66;4992781;28;20136;-55
2022/12/03 10:51:05;;;;;;;3.20;1.67;;;;;;;11.72;61.07;100842.75;5099823;27;20416;-54
2022/12/03 10:53:36;;;;;;;2.65;2.10;;;;;;;11.56;61.51;100832.28;5036980;28;20532;-54
2022/12/03 10:56:06;;;;;;;3.10;1.83;;;;;;;11.38;61.99;100834.78;5031650;28;20076;-54
2022/12/03 10:58:36;;;;;;;6.30;2.05;;;;;;;11.15;61.69;100825.13;5036408;28;20132;-54
2022/12/03 11:01:12;;;;;;;5.13;1.60;;;;;;;10.91;62.51;100831.84;5042235;28;20128;-56
2022/12/03 11:03:39;;;;;;;2.90;1.02;;;;;;;10.58;63.16;100821.19;5040441;28;20418;-55
2022/12/03 11:06:13;;;;;;;4.38;2.08;;;;;;;10.38;63.09;100826.13;5040096;28;20049;-57
2022/12/03 11:08:43;;;;;;;2.63;2.00;;;;;;;10.19;63.47;100819.84;5038877;28;20732;-56
2022/12/03 11:11:27;;;;;;;2.35;1.90;;;;;;;9.86;64.48;100811.75;5040234;28;20045;-54
2022/12/03 11:22:37;;;;;;;2.22;1.90;;;;;;;9.14;65.71;100810.72;5087378;27;20400;-56
2022/12/03 11:31:39;;;;;;;5.28;0.68;;;;;;;8.65;67.74;100806.47;5096810;27;20400;-55
2022/12/03 11:37:21;;;;;;;2.50;0.45;;;;;;;8.49;68.47;100795.84;5095683;27;21531;-55
2022/12/03 11:42:39;;;;;;;2.67;0.75;;;;;;;8.34;69.03;100793.00;5104013;27;20397;-55
2022/12/03 11:48:14;;;;;;;1.65;1.52;;;;;;;8.19;68.82;100781.56;5141535;27;20372;-51
2022/12/03 11:53:32;;;;;;;2.15;1.88;;;;;;;7.98;69.70;100777.72;5064464;27;20402;-53
2022/12/03 11:56:07;;;;;;;5.07;2.25;;;;;;;7.97;69.65;100770.81;5024133;28;20092;-54
2022/12/03 11:58:37;;;;;;;2.88;1.98;;;;;;;7.90;70.01;100773.25;5026107;28;20516;-54
2022/12/03 12:01:06;;;;;;;2.78;2.15;;;;;;;7.87;70.42;100773.19;5025232;28;20137;-54
2022/12/03 12:03:35;;;;;;;2.20;0.70;;;;;;;7.89;71.18;100774.97;5026327;28;20049;-51
2022/12/03 12:08:57;;;;;;;2.70;1.05;;;;;;;7.76;71.51;100768.69;5110899;27;20744;-54
2022/12/03 12:14:25;;;;;;;5.60;2.80;;;;;;;7.71;70.64;100763.41;5095069;27;20399;-56
2022/12/03 12:16:54;;;;;;;3.10;1.80;;;;;;;7.68;70.95;100760.81;5062184;28;20045;-52
2022/12/03 12:19:38;;;;;;;4.43;2.78;;;;;;;7.61;71.81;100776.97;5063407;28;20226;-54
2022/12/03 12:22:15;;;;;;;3.40;2.05;;;;;;;7.57;72.32;100759.72;5062661;28;20069;-54
2022/12/03 12:24:45;;;;;;;3.63;2.10;;;;;;;7.59;71.64;100747.69;5061029;28;20073;-52
2022/12/03 12:35:46;;;;;;;1.70;0.35;;;;;;;7.65;73.24;100742.69;5114481;27;20385;-54
2022/12/03 12:38:16;;;;;;;3.38;0.95;;;;;;;7.64;72.33;100740.94;5065590;28;20087;-55
2022/12/03 12:40:45;;;;;;;2.17;0.43;;;;;;;7.64;73.28;100740.94;5061320;28;20403;-54
2022/12/03 12:46:13;;;;;;;6.60;1.27;;;;;;;7.64;72.21;100737.50;5079102;27;20490;-56
2022/12/03 12:49:00;;;;;;;2.50;0.82;;;;;;;7.65;72.74;100732.38;5024038;28;20050;-54
2022/12/03 12:51:26;;;;;;;4.20;1.00;;;;;;;7.67;72.49;100730.69;5019522;28;20100;-53
2022/12/03 12:53:53;;;;;;;2.60;0.68;;;;;;;7.65;72.69;100727.22;5021026;28;20104;-51
2022/12/03 12:59:14;;;;;;;3.25;1.60;;;;;;;7.64;72.92;100724.59;5085822;27;20413;-53
2022/12/03 13:01:42;;;;;;;8.40;2.30;;;;;;;7.63;73.77;100715.13;5020860;28;20046;-53
2022/12/03 13:04:11;;;;;;;4.97;2.40;;;;;;;7.57;74.19;100703.84;5015898;28;20049;-56
2022/12/03 13:06:39;;;;;;;4.60;1.40;;;;;;;7.58;73.34;100705.59;5019208;28;20073;-56
2022/12/03 13:09:23;;;;;;;2.10;1.88;;;;;;;7.58;73.63;100704.72;5018039;28;20119;-55